createdAt,value
2023-01-29T00:00:17.729Z,75.52
2023-01-29T00:03:07.614Z,75.68
2023-01-29T00:05:36.747Z,75.65
2023-01-29T00:08:07.052Z,75.08
2023-01-29T00:10:36.295Z,74.28
2023-01-29T00:13:05.390Z,73.85
2023-01-29T00:15:34.692Z,71.86
2023-01-29T00:18:03.993Z,71.40
2023-01-29T00:20:33.761Z,71.45
2023-01-29T00:23:03.306Z,71.77
2023-01-29T00:25:32.934Z,71.32
2023-01-29T00:28:02.845Z,70.83
2023-01-29T00:30:32.547Z,71.28
2023-01-29T00:33:01.762Z,71.32
2023-01-29T00:35:32.231Z,70.79
2023-01-29T00:38:01.548Z,69.86
2023-01-29T00:40:50.840Z,70.00
2023-01-29T00:43:38.893Z,70.51
2023-01-29T00:46:08.657Z,71.69
2023-01-29T00:48:38.009Z,71.49
2023-01-29T00:51:07.410Z,71.37
2023-01-29T00:53:36.458Z,71.13
2023-01-29T00:56:06.596Z,70.21
2023-01-29T00:58:35.997Z,71.30
2023-01-29T01:01:05.676Z,71.74
2023-01-29T01:03:41.572Z,71.55
2023-01-29T01:06:11.836Z,72.24
2023-01-29T01:08:59.099Z,72.71
2023-01-29T01:11:28.944Z,73.18
2023-01-29T01:14:01.626Z,73.34
2023-01-29T01:16:30.978Z,72.67
2023-01-29T01:19:00.401Z,71.88
2023-01-29T01:21:29.504Z,71.27
2023-01-29T01:23:59.127Z,71.68
2023-01-29T01:26:29.739Z,71.51
2023-01-29T01:28:58.732Z,71.16
2023-01-29T01:31:27.987Z,70.88
2023-01-29T01:33:57.334Z,70.79
2023-01-29T01:36:27.799Z,71.43
2023-01-29T01:38:57.077Z,70.50
2023-01-29T01:41:27.396Z,71.10
2023-01-29T01:43:57.331Z,70.80
2023-01-29T01:46:30.864Z,70.61
2023-01-29T01:49:02.884Z,71.46
2023-01-29T01:51:36.315Z,71.06
2023-01-29T01:54:10.126Z,70.47
2023-01-29T01:56:42.909Z,70.67
2023-01-29T01:59:16.011Z,71.15
2023-01-29T02:01:50.727Z,70.40
2023-01-29T02:04:42.439Z,70.69
2023-01-29T02:07:33.476Z,70.66
2023-01-29T02:10:11.026Z,70.34
2023-01-29T02:12:40.702Z,70.82
2023-01-29T02:15:11.924Z,70.95
2023-01-29T02:17:41.326Z,71.02
2023-01-29T02:20:18.101Z,71.47
2023-01-29T02:23:12.743Z,71.70
2023-01-29T02:26:16.800Z,72.21
2023-01-29T02:28:52.901Z,71.30
2023-01-29T02:31:29.386Z,71.15
2023-01-29T02:34:06.365Z,71.36
2023-01-29T02:36:41.535Z,70.81
2023-01-29T02:39:19.916Z,70.76
2023-01-29T02:41:58.703Z,70.73
2023-01-29T02:44:36.548Z,70.77
2023-01-29T02:47:12.495Z,70.58
2023-01-29T02:49:49.701Z,70.34
2023-01-29T02:52:23.866Z,70.68
2023-01-29T02:55:02.359Z,70.32
2023-01-29T02:57:36.479Z,70.52
2023-01-29T03:00:10.594Z,70.96
2023-01-29T03:02:45.884Z,71.21
2023-01-29T03:05:21.806Z,71.39
2023-01-29T03:07:57.182Z,71.32
2023-01-29T03:10:38.541Z,71.29
2023-01-29T03:13:12.748Z,71.15
2023-01-29T03:15:46.384Z,71.14
2023-01-29T03:18:45.596Z,71.09
2023-01-29T03:21:41.823Z,71.08
2023-01-29T03:24:32.528Z,71.06
2023-01-29T03:27:27.573Z,71.61
2023-01-29T03:30:17.823Z,72.60
2023-01-29T03:32:57.832Z,72.15
2023-01-29T03:35:34.814Z,72.17
2023-01-29T03:38:05.790Z,71.92
2023-01-29T03:40:42.585Z,71.61
2023-01-29T03:43:19.252Z,70.80
2023-01-29T03:45:57.095Z,70.91
2023-01-29T03:48:35.062Z,70.74
2023-01-29T03:51:20.025Z,70.61
2023-01-29T03:53:54.233Z,70.67
2023-01-29T03:56:36.690Z,71.02
2023-01-29T03:59:20.837Z,71.31
2023-01-29T04:02:13.500Z,71.48
2023-01-29T04:04:47.186Z,71.63
2023-01-29T04:07:24.049Z,71.54
2023-01-29T04:10:06.188Z,71.31
2023-01-29T04:12:41.830Z,71.68
2023-01-29T04:15:16.070Z,72.38
2023-01-29T04:17:49.475Z,72.31
2023-01-29T04:20:25.390Z,71.98
2023-01-29T04:22:54.793Z,71.86
2023-01-29T04:25:28.503Z,71.39
2023-01-29T04:28:08.048Z,71.17
2023-01-29T04:30:44.933Z,71.26
2023-01-29T04:33:24.488Z,71.54
2023-01-29T04:36:13.350Z,71.21
2023-01-29T04:38:48.993Z,71.27
2023-01-29T04:41:22.804Z,71.03
2023-01-29T04:44:03.041Z,71.21
2023-01-29T04:46:44.601Z,71.48
2023-01-29T04:49:21.561Z,72.15
2023-01-29T04:52:01.296Z,71.88
2023-01-29T04:54:41.788Z,71.61
2023-01-29T04:57:22.588Z,71.53
2023-01-29T05:00:00.458Z,71.80
2023-01-29T05:02:31.907Z,71.91
2023-01-29T05:05:03.295Z,71.55
2023-01-29T05:07:33.909Z,71.43
2023-01-29T05:10:04.136Z,71.40
2023-01-29T05:12:33.169Z,71.53
2023-01-29T05:15:03.245Z,71.84
2023-01-29T05:17:32.559Z,71.77
2023-01-29T05:20:01.888Z,71.72
2023-01-29T05:22:32.000Z,71.95
2023-01-29T05:25:01.047Z,72.19
2023-01-29T05:27:53.406Z,72.10
2023-01-29T05:30:23.089Z,71.67
2023-01-29T05:32:51.834Z,72.16
2023-01-29T05:35:21.057Z,72.70
2023-01-29T05:37:50.760Z,72.54
2023-01-29T05:40:19.639Z,72.52
2023-01-29T05:42:49.095Z,72.24
2023-01-29T05:45:19.208Z,72.26
2023-01-29T05:47:48.108Z,71.82
2023-01-29T05:50:18.732Z,71.95
2023-01-29T05:52:48.086Z,71.99
2023-01-29T05:55:17.912Z,71.72
2023-01-29T05:57:47.061Z,71.58
2023-01-29T06:00:18.593Z,71.93
2023-01-29T06:02:48.138Z,71.82
2023-01-29T06:05:17.485Z,71.89
2023-01-29T06:07:46.808Z,71.91
2023-01-29T06:10:17.894Z,72.41
2023-01-29T06:12:47.148Z,72.76
2023-01-29T06:15:16.657Z,72.96
2023-01-29T06:17:45.353Z,72.72
2023-01-29T06:20:15.471Z,72.44
2023-01-29T06:22:44.888Z,72.26
2023-01-29T06:25:14.092Z,72.23
2023-01-29T06:27:43.294Z,71.97
2023-01-29T06:30:14.649Z,72.07
2023-01-29T06:32:44.331Z,72.14
2023-01-29T06:35:13.863Z,72.11
2023-01-29T06:37:43.249Z,72.55
2023-01-29T06:40:13.829Z,72.87
2023-01-29T06:42:45.914Z,72.94
2023-01-29T06:45:15.922Z,72.68
2023-01-29T06:47:44.910Z,72.54
2023-01-29T06:50:13.895Z,72.54
2023-01-29T06:52:42.900Z,72.22
2023-01-29T06:55:11.935Z,72.04
2023-01-29T06:57:41.242Z,71.98
2023-01-29T07:00:13.055Z,71.93
2023-01-29T07:02:41.849Z,71.85
2023-01-29T07:05:11.061Z,71.84
2023-01-29T07:07:40.057Z,72.03
2023-01-29T07:10:11.078Z,72.40
2023-01-29T07:12:40.080Z,72.35
2023-01-29T07:15:12.139Z,71.91
2023-01-29T07:17:41.071Z,71.90
2023-01-29T07:20:12.437Z,71.87
2023-01-29T07:22:41.221Z,71.53
2023-01-29T07:25:11.444Z,71.75
2023-01-29T07:27:40.674Z,71.71
2023-01-29T07:30:12.904Z,71.40
2023-01-29T07:32:42.511Z,71.49
2023-01-29T07:35:11.712Z,71.32
2023-01-29T07:37:40.574Z,71.53
2023-01-29T07:40:12.517Z,72.10
2023-01-29T07:42:43.459Z,71.95
2023-01-29T07:45:13.894Z,71.52
2023-01-29T07:47:43.107Z,71.61
2023-01-29T07:50:12.890Z,70.97
2023-01-29T07:52:42.495Z,71.04
2023-01-29T07:55:11.952Z,71.14
2023-01-29T07:57:41.126Z,70.86
2023-01-29T08:00:12.886Z,70.97
2023-01-29T08:02:42.596Z,70.80
2023-01-29T08:05:11.750Z,70.57
2023-01-29T08:07:40.986Z,70.62
2023-01-29T08:10:11.793Z,70.70
2023-01-29T08:12:41.231Z,70.97
2023-01-29T08:15:12.075Z,71.19
2023-01-29T08:17:56.039Z,71.52
2023-01-29T08:20:27.228Z,70.62
2023-01-29T08:23:01.716Z,70.84
2023-01-29T08:25:31.278Z,70.58
2023-01-29T08:28:01.275Z,70.24
2023-01-29T08:30:32.619Z,70.13
2023-01-29T08:33:03.607Z,70.20
2023-01-29T08:35:32.734Z,70.02
2023-01-29T08:38:03.257Z,69.61
2023-01-29T08:40:34.843Z,69.25
2023-01-29T08:43:07.749Z,69.35
2023-01-29T08:45:40.868Z,69.31
2023-01-29T08:48:12.048Z,68.51
2023-01-29T08:50:41.288Z,68.92
2023-01-29T08:53:10.916Z,68.47
2023-01-29T08:55:41.739Z,67.45
2023-01-29T08:58:12.809Z,68.12
2023-01-29T09:00:42.125Z,67.18
2023-01-29T09:03:11.435Z,67.21
2023-01-29T09:05:41.408Z,67.49
2023-01-29T09:08:12.328Z,66.92
2023-01-29T09:10:41.379Z,66.80
2023-01-29T09:13:10.230Z,66.63
2023-01-29T09:15:39.645Z,65.99
2023-01-29T09:18:08.514Z,65.71
2023-01-29T09:20:40.021Z,65.48
2023-01-29T09:23:10.773Z,64.97
2023-01-29T09:25:39.634Z,65.58
2023-01-29T09:28:08.916Z,64.95
2023-01-29T09:30:37.904Z,65.77
2023-01-29T09:33:08.393Z,64.78
2023-01-29T09:35:37.517Z,64.75
2023-01-29T09:38:06.365Z,64.42
2023-01-29T09:40:47.467Z,64.16
2023-01-29T09:43:22.797Z,64.06
2023-01-29T09:45:58.266Z,64.12
2023-01-29T09:48:32.435Z,63.66
2023-01-29T09:51:07.104Z,63.63
2023-01-29T09:53:41.438Z,63.88
2023-01-29T09:56:17.066Z,63.40
2023-01-29T09:58:46.822Z,63.26
2023-01-29T10:01:22.515Z,63.85
2023-01-29T10:04:19.909Z,63.79
2023-01-29T10:07:07.031Z,63.33
2023-01-29T10:09:52.136Z,62.95
2023-01-29T10:12:40.693Z,62.46
2023-01-29T10:15:27.332Z,62.45
2023-01-29T10:18:10.602Z,61.83
2023-01-29T10:20:53.249Z,63.12
2023-01-29T10:23:30.237Z,61.95
2023-01-29T10:25:59.560Z,62.71
2023-01-29T10:28:34.033Z,62.68
2023-01-29T10:31:08.942Z,61.94
2023-01-29T10:33:49.408Z,62.77
2023-01-29T10:36:35.109Z,62.33
2023-01-29T10:39:05.619Z,62.70
2023-01-29T10:41:48.696Z,63.09
2023-01-29T10:44:33.446Z,62.72
2023-01-29T10:47:30.692Z,62.46
2023-01-29T10:50:13.468Z,63.02
2023-01-29T10:53:03.819Z,62.91
2023-01-29T10:55:43.261Z,62.70
2023-01-29T10:58:23.148Z,62.55
2023-01-29T11:00:52.621Z,62.39
2023-01-29T11:03:28.325Z,62.25
2023-01-29T11:06:04.304Z,62.09
2023-01-29T11:08:38.292Z,61.86
2023-01-29T11:11:12.429Z,60.84
2023-01-29T11:13:48.613Z,61.37
2023-01-29T11:16:18.193Z,61.29
2023-01-29T11:18:54.263Z,61.96
2023-01-29T11:21:24.720Z,60.77
2023-01-29T11:24:08.036Z,61.10
2023-01-29T11:26:40.969Z,60.85
2023-01-29T11:29:32.138Z,61.30
2023-01-29T11:32:04.224Z,60.98
2023-01-29T11:34:33.418Z,61.15
2023-01-29T11:37:04.550Z,60.99
2023-01-29T11:39:33.681Z,60.73
2023-01-29T11:42:04.365Z,61.39
2023-01-29T11:44:36.582Z,60.99
2023-01-29T11:47:20.944Z,61.36
2023-01-29T11:49:52.612Z,60.97
2023-01-29T11:52:24.625Z,60.22
2023-01-29T11:54:57.877Z,60.98
2023-01-29T11:57:33.550Z,60.66
2023-01-29T12:00:06.384Z,60.71
2023-01-29T12:02:42.211Z,60.57
2023-01-29T12:05:17.838Z,60.03
2023-01-29T12:07:49.811Z,60.06
2023-01-29T12:10:33.946Z,60.04
2023-01-29T12:13:26.103Z,59.79
2023-01-29T12:16:17.898Z,60.15
2023-01-29T12:18:52.940Z,59.68
2023-01-29T12:21:30.109Z,60.03
2023-01-29T12:24:06.910Z,59.92
2023-01-29T12:26:41.307Z,59.68
2023-01-29T12:29:23.386Z,59.66
2023-01-29T12:32:03.763Z,59.78
2023-01-29T12:34:44.613Z,59.42
2023-01-29T12:37:22.610Z,59.66
2023-01-29T12:39:53.636Z,59.76
2023-01-29T12:42:24.968Z,59.92
2023-01-29T12:44:57.913Z,59.57
2023-01-29T12:47:32.900Z,59.62
2023-01-29T12:50:07.263Z,59.09
2023-01-29T12:52:43.199Z,59.37
2023-01-29T12:55:19.572Z,60.06
2023-01-29T12:57:55.553Z,59.84
2023-01-29T13:00:27.191Z,59.54
2023-01-29T13:03:02.447Z,59.61
2023-01-29T13:05:38.576Z,59.20
2023-01-29T13:08:14.568Z,59.61
2023-01-29T13:10:49.081Z,59.22
2023-01-29T13:13:26.567Z,59.42
2023-01-29T13:15:59.345Z,59.65
2023-01-29T13:18:43.274Z,60.08
2023-01-29T13:21:17.235Z,60.15
2023-01-29T13:23:49.104Z,60.08
2023-01-29T13:26:20.260Z,60.47
2023-01-29T13:28:51.684Z,60.22
2023-01-29T13:31:31.006Z,60.51
2023-01-29T13:34:15.345Z,60.53
2023-01-29T13:36:47.004Z,60.64
2023-01-29T13:39:24.190Z,60.74
2023-01-29T13:41:56.051Z,60.76
2023-01-29T13:44:28.233Z,60.81
2023-01-29T13:47:00.642Z,60.97
2023-01-29T13:49:38.426Z,60.98
2023-01-29T13:52:26.653Z,60.93
2023-01-29T13:54:57.979Z,61.54
2023-01-29T13:57:48.632Z,61.03
2023-01-29T14:00:57.726Z,61.52
2023-01-29T14:03:56.693Z,62.00
2023-01-29T14:06:46.619Z,61.93
2023-01-29T14:09:50.851Z,61.91
2023-01-29T14:12:53.653Z,61.90
2023-01-29T14:15:25.742Z,62.09
2023-01-29T14:18:13.934Z,62.79
2023-01-29T14:20:53.477Z,62.41
2023-01-29T14:23:30.242Z,62.36
2023-01-29T14:26:04.270Z,62.41
2023-01-29T14:28:35.508Z,62.23
2023-01-29T14:31:07.151Z,62.72
2023-01-29T14:33:41.009Z,62.74
2023-01-29T14:36:14.805Z,62.46
2023-01-29T14:38:50.342Z,62.24
2023-01-29T14:41:28.405Z,62.44
2023-01-29T14:44:29.277Z,62.31
2023-01-29T14:46:58.558Z,62.94
2023-01-29T14:49:49.677Z,62.94
2023-01-29T14:52:21.591Z,63.12
2023-01-29T14:54:52.792Z,63.20
2023-01-29T14:57:23.618Z,63.02
2023-01-29T14:59:58.054Z,63.38
2023-01-29T15:02:34.714Z,63.58
2023-01-29T15:05:07.275Z,63.62
2023-01-29T15:07:39.909Z,63.79
2023-01-29T15:10:23.750Z,64.23
2023-01-29T15:12:58.378Z,64.72
2023-01-29T15:15:37.366Z,65.00
2023-01-29T15:18:13.019Z,65.69
2023-01-29T15:20:43.623Z,65.49
2023-01-29T15:23:27.167Z,65.35
2023-01-29T15:26:01.232Z,65.52
2023-01-29T15:28:32.846Z,65.27
2023-01-29T15:31:04.525Z,65.41
2023-01-29T15:33:38.027Z,65.85
2023-01-29T15:36:18.264Z,65.59
2023-01-29T15:38:47.874Z,65.58
2023-01-29T15:41:20.790Z,66.12
2023-01-29T15:43:56.611Z,66.99
2023-01-29T15:46:28.272Z,67.77
2023-01-29T15:49:00.681Z,68.71
2023-01-29T15:51:32.038Z,68.46
2023-01-29T15:54:03.852Z,68.35
2023-01-29T15:56:37.045Z,68.03
2023-01-29T15:59:10.095Z,67.84
2023-01-29T16:01:39.607Z,67.51
2023-01-29T16:04:14.266Z,67.82
2023-01-29T16:06:45.437Z,67.86
2023-01-29T16:09:18.654Z,67.85
2023-01-29T16:11:50.351Z,67.98
2023-01-29T16:14:25.136Z,67.96
2023-01-29T16:16:55.345Z,68.80
2023-01-29T16:19:25.999Z,69.40
2023-01-29T16:22:01.960Z,69.68
2023-01-29T16:24:34.732Z,69.41
2023-01-29T16:27:11.803Z,69.17
2023-01-29T16:29:41.621Z,68.98
2023-01-29T16:32:13.401Z,68.54
2023-01-29T16:34:44.661Z,68.80
2023-01-29T16:37:23.765Z,68.93
2023-01-29T16:39:53.153Z,69.00
2023-01-29T16:42:27.809Z,68.77
2023-01-29T16:45:00.273Z,68.93
2023-01-29T16:47:33.101Z,69.01
2023-01-29T16:50:22.909Z,69.92
2023-01-29T16:52:58.155Z,70.39
2023-01-29T16:55:32.553Z,69.88
2023-01-29T16:58:09.028Z,69.63
2023-01-29T17:00:43.719Z,69.39
2023-01-29T17:03:14.910Z,69.54
2023-01-29T17:05:44.832Z,69.32
2023-01-29T17:08:22.757Z,69.30
2023-01-29T17:10:52.585Z,69.59
2023-01-29T17:13:31.060Z,69.34
2023-01-29T17:16:02.705Z,70.14
2023-01-29T17:18:32.007Z,70.85
2023-01-29T17:21:01.035Z,70.64
2023-01-29T17:23:30.034Z,70.45
2023-01-29T17:26:00.562Z,70.23
2023-01-29T17:28:30.589Z,70.09
2023-01-29T17:31:06.382Z,70.09
2023-01-29T17:33:38.485Z,70.05
2023-01-29T17:36:13.208Z,69.94
2023-01-29T17:38:42.393Z,70.31
2023-01-29T17:41:21.283Z,71.06
2023-01-29T17:43:51.246Z,70.99
2023-01-29T17:46:22.202Z,70.58
2023-01-29T17:48:51.918Z,70.39
2023-01-29T17:51:22.441Z,70.21
2023-01-29T17:53:52.541Z,70.28
2023-01-29T17:56:26.964Z,70.25
2023-01-29T17:58:56.545Z,70.18
2023-01-29T18:01:25.855Z,70.65
2023-01-29T18:03:55.231Z,71.26
2023-01-29T18:06:28.818Z,71.36
2023-01-29T18:08:58.420Z,70.82
2023-01-29T18:11:28.143Z,70.64
2023-01-29T18:13:57.859Z,70.70
2023-01-29T18:16:28.034Z,70.53
2023-01-29T18:18:56.610Z,70.61
2023-01-29T18:21:25.805Z,70.60
2023-01-29T18:23:56.063Z,70.29
2023-01-29T18:26:25.369Z,70.86
2023-01-29T18:28:54.842Z,71.36
2023-01-29T18:31:28.621Z,71.56
2023-01-29T18:33:58.040Z,71.36
2023-01-29T18:36:27.340Z,71.47
2023-01-29T18:38:58.481Z,71.57
2023-01-29T18:41:27.582Z,71.58
2023-01-29T18:43:56.995Z,71.67
2023-01-29T18:46:27.843Z,71.45
2023-01-29T18:48:57.057Z,71.36
2023-01-29T18:51:25.975Z,71.29
2023-01-29T18:53:56.081Z,72.11
2023-01-29T18:56:25.755Z,72.64
2023-01-29T18:58:56.646Z,72.97
2023-01-29T19:01:27.124Z,72.95
2023-01-29T19:03:58.815Z,72.51
2023-01-29T19:06:28.002Z,72.48
2023-01-29T19:08:58.351Z,72.10
2023-01-29T19:11:27.216Z,72.01
2023-01-29T19:13:55.904Z,72.15
2023-01-29T19:16:25.664Z,72.17
2023-01-29T19:18:55.547Z,72.78
2023-01-29T19:21:25.012Z,73.40
2023-01-29T19:23:54.292Z,73.29
2023-01-29T19:26:23.706Z,73.11
2023-01-29T19:28:53.321Z,73.11
2023-01-29T19:31:22.371Z,72.77
2023-01-29T19:33:51.834Z,72.89
2023-01-29T19:36:21.505Z,72.89
2023-01-29T19:38:50.957Z,73.74
2023-01-29T19:41:20.240Z,73.90
2023-01-29T19:43:49.568Z,73.87
2023-01-29T19:46:18.632Z,73.55
2023-01-29T19:48:48.071Z,73.58
2023-01-29T19:51:17.486Z,73.34
2023-01-29T19:53:46.578Z,73.29
2023-01-29T19:56:18.161Z,73.52
2023-01-29T19:58:47.642Z,73.52
2023-01-29T20:01:19.203Z,75.29
2023-01-29T20:03:49.499Z,75.45
2023-01-29T20:06:23.813Z,75.89
2023-01-29T20:08:54.063Z,75.80
2023-01-29T20:11:24.774Z,75.69
2023-01-29T20:13:54.290Z,75.38
2023-01-29T20:16:24.794Z,75.40
2023-01-29T20:18:54.061Z,75.09
2023-01-29T20:21:23.250Z,75.67
2023-01-29T20:23:53.395Z,76.27
2023-01-29T20:26:22.623Z,76.31
2023-01-29T20:28:51.710Z,76.03
2023-01-29T20:31:20.934Z,75.81
2023-01-29T20:33:50.068Z,76.11
2023-01-29T20:36:19.518Z,76.08
2023-01-29T20:38:48.566Z,76.14
2023-01-29T20:41:19.417Z,76.69
2023-01-29T20:43:50.385Z,76.74
2023-01-29T20:46:20.342Z,76.48
2023-01-29T20:48:52.583Z,76.14
2023-01-29T20:51:21.844Z,76.00
2023-01-29T20:53:51.331Z,75.83
2023-01-29T20:56:32.079Z,75.97
2023-01-29T20:59:09.068Z,76.43
2023-01-29T21:01:38.647Z,76.79
2023-01-29T21:04:07.788Z,76.44
2023-01-29T21:06:37.084Z,75.73
2023-01-29T21:09:06.576Z,75.66
2023-01-29T21:11:35.741Z,75.63
2023-01-29T21:14:05.585Z,75.37
2023-01-29T21:16:34.384Z,75.40
2023-01-29T21:19:04.472Z,75.58
2023-01-29T21:21:34.277Z,76.05
2023-01-29T21:24:03.741Z,75.93
2023-01-29T21:26:33.126Z,75.61
2023-01-29T21:29:02.602Z,75.07
2023-01-29T21:31:31.700Z,74.77
2023-01-29T21:34:01.162Z,74.59
2023-01-29T21:36:30.708Z,74.53
2023-01-29T21:39:00.216Z,75.14
2023-01-29T21:41:43.955Z,75.47
2023-01-29T21:44:13.563Z,75.37
2023-01-29T21:46:43.064Z,75.05
2023-01-29T21:49:12.472Z,75.01
2023-01-29T21:51:41.822Z,74.87
2023-01-29T21:54:11.325Z,75.30
2023-01-29T21:56:40.524Z,75.86
2023-01-29T21:59:14.077Z,76.25
2023-01-29T22:01:43.470Z,76.11
2023-01-29T22:04:15.569Z,75.64
2023-01-29T22:06:44.895Z,75.32
2023-01-29T22:09:14.045Z,75.20
2023-01-29T22:11:43.505Z,74.95
2023-01-29T22:14:12.540Z,75.37
2023-01-29T22:16:41.560Z,75.73
2023-01-29T22:19:10.531Z,75.26
2023-01-29T22:21:39.940Z,74.86
2023-01-29T22:24:09.388Z,74.42
2023-01-29T22:26:39.216Z,74.16
2023-01-29T22:29:11.165Z,74.23
2023-01-29T22:31:40.433Z,74.24
2023-01-29T22:34:11.567Z,74.48
2023-01-29T22:36:40.915Z,74.56
2023-01-29T22:39:10.287Z,74.16
2023-01-29T22:41:39.509Z,73.77
2023-01-29T22:44:09.619Z,73.56
2023-01-29T22:46:38.871Z,73.58
2023-01-29T22:49:07.996Z,73.42
2023-01-29T22:51:37.293Z,73.71
2023-01-29T22:54:06.596Z,74.39
2023-01-29T22:56:35.735Z,74.75
2023-01-29T22:59:05.091Z,74.49
2023-01-29T23:01:34.548Z,74.32
2023-01-29T23:04:03.901Z,74.19
2023-01-29T23:06:33.205Z,74.11
2023-01-29T23:09:02.918Z,74.09
2023-01-29T23:11:32.138Z,74.07
2023-01-29T23:14:01.101Z,74.79
2023-01-29T23:16:30.111Z,74.88
2023-01-29T23:18:59.728Z,74.67
2023-01-29T23:21:29.116Z,74.38
2023-01-29T23:23:59.259Z,73.75
2023-01-29T23:26:47.076Z,73.75
2023-01-29T23:29:16.822Z,73.70
2023-01-29T23:31:46.238Z,73.87
2023-01-29T23:34:16.331Z,74.25
2023-01-29T23:36:45.733Z,73.55
2023-01-29T23:39:15.925Z,73.11
2023-01-29T23:41:45.064Z,72.83
2023-01-29T23:44:14.503Z,72.79
2023-01-29T23:46:44.972Z,72.87
2023-01-29T23:49:12.925Z,72.96
2023-01-29T23:51:42.761Z,73.34
2023-01-29T23:54:12.759Z,73.71
2023-01-29T23:56:41.860Z,73.72
2023-01-29T23:59:11.453Z,73.50
